ADDS METAR Data INFO
IDs: Format: Raw Decoded Include TAF

Data at: 1748 UTC 21 Oct 2017

KA39 211735Z AUTO 00000KT 10SM CLR 22/08 A3005 RMK AO2
KA39 211715Z AUTO 26003KT 10SM CLR 22/08 A3005 RMK AO2
KA39 211655Z AUTO 26004KT 10SM CLR 21/08 A3005 RMK AO2
KA39 211635Z AUTO 26003KT 10SM CLR 21/08 A3005 RMK AO2
KA39 211615Z AUTO 27004KT 10SM CLR 20/08 A3005 RMK AO2
KA39 211555Z AUTO 23004KT 10SM CLR 19/08 A3004 RMK AO2
KA39 211535Z AUTO 16003KT 10SM CLR 19/07 A3003 RMK AO2
KA39 211515Z AUTO 14004KT 10SM CLR 18/07 A3002 RMK AO2
KA39 211455Z AUTO 12005KT 10SM CLR 17/07 A3001 RMK AO2
KA39 211435Z AUTO 11004KT 10SM CLR 15/07 A3000 RMK AO2
KA39 211415Z AUTO 12004KT 10SM CLR 14/07 A2999 RMK AO2
KA39 211355Z AUTO 13005KT 10SM CLR 13/07 A2998 RMK AO2
KA39 211335Z AUTO 00000KT 10SM CLR 13/07 A2997 RMK AO2
KA39 211315Z AUTO 23004KT 10SM CLR 14/07 A2997 RMK AO2
KA39 211255Z AUTO 21004KT 10SM CLR 15/07 A2996 RMK AO2
KA39 211235Z AUTO 21005KT 10SM CLR 15/07 A2994 RMK AO2
KA39 211215Z AUTO 25005KT 10SM CLR 16/07 A2993 RMK AO2
KA39 211155Z AUTO 27006KT 10SM CLR 17/07 A2993 RMK AO2
KA39 211135Z AUTO 31004KT 10SM CLR 17/07 A2992 RMK AO2
KA39 211115Z AUTO 28006KT 10SM CLR 16/07 A2992 RMK AO2
KA39 211055Z AUTO 00000KT 10SM CLR 16/06 A2991 RMK AO2
KA39 211035Z AUTO 00000KT 10SM CLR 18/06 A2991 RMK AO2
KA39 211015Z AUTO 24006KT 10SM CLR 18/07 A2989 RMK AO2
KA39 210955Z AUTO 23007KT 7SM SCT033 19/07 A2988 RMK AO2
KA39 210935Z AUTO 23006KT 10SM SCT027 BKN035 18/06 A2988 RMK AO2
KA39 210915Z AUTO 25005KT 10SM OVC035 17/06 A2987 RMK AO2
KA39 210855Z AUTO 24003KT 10SM OVC035 18/07 A2988 RMK AO2
KA39 210835Z AUTO 29004KT 10SM OVC035 18/07 A2988 RMK AO2
KA39 210815Z AUTO 36004KT 10SM OVC035 19/06 A2989 RMK AO2
KA39 210755Z AUTO 00000KT 10SM OVC033 19/06 A2987 RMK AO2
KA39 210735Z AUTO 00000KT 10SM OVC035 20/06 A2988 RMK AO2
KA39 210715Z AUTO 29006KT 10SM OVC035 20/06 A2988 RMK AO2
KA39 210655Z AUTO 28008KT 7SM OVC035 21/06 A2988 RMK AO2
KA39 210635Z AUTO 36003KT 7SM HZ OVC035 22/06 A2989 RMK AO2
KA39 210615Z AUTO 04005KT 7SM HZ SCT028 OVC035 21/06 A2989 RMK AO2
KA39 210555Z AUTO 09006KT 7SM HZ SCT022 OVC028 20/06 A2987 RMK AO2
KA39 210535Z AUTO 13004KT 5SM HZ OVC022 20/06 A2987 RMK AO2
KA39 210515Z AUTO 33003KT 7SM HZ OVC024 21/07 A2986 RMK AO2
KA39 210455Z AUTO 30006KT 10SM SCT026 SCT032 22/07 A2985 RMK AO2
KA39 210435Z AUTO 31008KT 10SM CLR 22/07 A2985 RMK AO2
KA39 210415Z AUTO 33004KT 10SM CLR 23/07 A2985 RMK AO2
KA39 210355Z AUTO 01008G16KT 10SM CLR 23/07 A2982 RMK AO2
KA39 210335Z AUTO 32004KT 10SM CLR 24/07 A2981 RMK AO2
KA39 210315Z AUTO 26007KT 10SM CLR 24/07 A2980 RMK AO2
KA39 210255Z AUTO 27013KT 10SM CLR 24/07 A2980 RMK AO2
KA39 210235Z AUTO 27014KT 10SM CLR 24/08 A2981 RMK AO2
KA39 210215Z AUTO 28014KT 10SM CLR 25/08 A2981 RMK AO2
KA39 210155Z AUTO 28014KT 10SM CLR 25/09 A2980 RMK AO2
KA39 210135Z AUTO 29012KT 7SM CLR 25/07 A2979 RMK AO2
KA39 210115Z AUTO 29007KT 10SM CLR 26/06 A2977 RMK AO2
KA39 210055Z AUTO 31011KT 10SM CLR 27/06 A2977 RMK AO2
KA39 210035Z AUTO 30012KT 10SM CLR 27/07 A2977 RMK AO2
KA39 210015Z AUTO 29013KT 10SM CLR 28/08 A2976 RMK AO2
KA39 202355Z AUTO 29014KT 10SM CLR 29/07 A2976 RMK AO2
KA39 202335Z AUTO 29013G17KT 10SM CLR 30/07 A2976 RMK AO2
KA39 202315Z AUTO 27017G22KT 10SM CLR 30/05 A2977 RMK AO2
KA39 202255Z AUTO 27012KT 10SM CLR 31/05 A2977 RMK AO2
KA39 202235Z AUTO 24013G16KT 10SM CLR 31/05 A2977 RMK AO2
KA39 202215Z AUTO 25011KT 10SM CLR 31/06 A2977 RMK AO2
KA39 202155Z AUTO 26013KT 10SM CLR 31/07 A2978 RMK AO2
KA39 202135Z AUTO 25017G20KT 10SM CLR 31/06 A2979 RMK AO2
KA39 202115Z AUTO 26011G19KT 10SM CLR 31/07 A2979 RMK AO2
KA39 202055Z AUTO 25011KT 10SM CLR 31/07 A2979 RMK AO2
KA39 202035Z AUTO 25012KT 10SM CLR 31/06 A2981 RMK AO2
KA39 202015Z AUTO 25010G20KT 10SM CLR 30/06 A2982 RMK AO2
KA39 201955Z AUTO 25008G17KT 10SM CLR 30/07 A2983 RMK AO2
KA39 201935Z AUTO 26010KT 10SM CLR 29/08 A2985 RMK AO2
KA39 201915Z AUTO 27012KT 10SM CLR 29/07 A2986 RMK AO2
KA39 201855Z AUTO 29010G15KT 10SM CLR 29/06 A2988 RMK AO2
KA39 201835Z AUTO 27009KT 10SM CLR 29/05 A2988 RMK AO2
KA39 201815Z AUTO 23003KT 10SM CLR 29/03 A2987 RMK AO2
KA39 201755Z AUTO 18006KT 10SM CLR 29/03 A2987 RMK AO2
KA39 201735Z AUTO 16006KT 10SM CLR 29/03 A2988 RMK AO2
KA39 201715Z AUTO 16008KT 10SM CLR 28/03 A2988 RMK AO2
KA39 201655Z AUTO 16007KT 10SM CLR 27/04 A2989 RMK AO2
KA39 201635Z AUTO 14006KT 10SM CLR 26/04 A2989 RMK AO2
KA39 201615Z AUTO 13007KT 10SM CLR 25/03 A2989 RMK AO2
KA39 201555Z AUTO 12006KT 10SM CLR 24/03 A2988 RMK AO2
KA39 201535Z AUTO 13007KT 10SM CLR 23/03 A2989 RMK AO2
KA39 201515Z AUTO 13008KT 10SM CLR 22/02 A2988 RMK AO2
KA39 201455Z AUTO 12008KT 10SM CLR 21/02 A2988 RMK AO2
KA39 201435Z AUTO 11006KT 10SM CLR 19/01 A2987 RMK AO2
KA39 201415Z AUTO 15006KT 10SM CLR 18/01 A2988 RMK AO2
KA39 201355Z AUTO 13005KT 10SM CLR 16/01 A2987 RMK AO2
KA39 201335Z AUTO 12006KT 10SM CLR 16/01 A2986 RMK AO2
KA39 201315Z AUTO 13005KT 10SM CLR 17/01 A2986 RMK AO2
KA39 201255Z AUTO 15006KT 10SM CLR 17/01 A2985 RMK AO2
KA39 201235Z AUTO 14008KT 10SM CLR 18/01 A2985 RMK AO2
KA39 201215Z AUTO 15006KT 10SM CLR 18/01 A2985 RMK AO2
KA39 201155Z AUTO 11007KT 10SM CLR 18/01 A2984 RMK AO2
KA39 201135Z AUTO 11008KT 10SM CLR 18/01 A2984 RMK AO2
KA39 201115Z AUTO 11007KT 10SM CLR 18/01 A2984 RMK AO2
KA39 201055Z AUTO 10006KT 10SM CLR 18/01 A2984 RMK AO2
KA39 201035Z AUTO 10005KT 10SM CLR 19/01 A2984 RMK AO2
KA39 201015Z AUTO 12006KT 10SM CLR 19/01 A2984 RMK AO2
KA39 200955Z AUTO 13007KT 10SM CLR 20/02 A2983 RMK AO2
KA39 200935Z AUTO 14007KT 10SM CLR 21/02 A2983 RMK AO2
KA39 200915Z AUTO 12009KT 10SM CLR 20/02 A2983 RMK AO2
KA39 200855Z AUTO 13007KT 10SM CLR 20/02 A2984 RMK AO2
KA39 200835Z AUTO 11009KT 10SM CLR 18/02 A2984 RMK AO2
KA39 200815Z AUTO 15007KT 10SM CLR 19/04 A2984 RMK AO2
KA39 200755Z AUTO 13008KT 10SM CLR 21/02 A2983 RMK AO2
KA39 200735Z AUTO 13007KT 10SM CLR 21/02 A2982 RMK AO2
KA39 200715Z AUTO 12007KT 10SM CLR 20/02 A2982 RMK AO2
KA39 200655Z AUTO 13008KT 10SM CLR 22/02 A2982 RMK AO2
KA39 200635Z AUTO 13006KT 10SM CLR 21/02 A2983 RMK AO2
KA39 200615Z AUTO 12005KT 10SM CLR 22/02 A2983 RMK AO2
KA39 200555Z AUTO 11005KT 10SM CLR 22/02 A2983 RMK AO2